createdAt,value
2023-02-19T00:01:42.548Z,96044.16
2023-02-19T00:04:14.128Z,96041.47
2023-02-19T00:06:42.660Z,96046.16
2023-02-19T00:09:11.493Z,96038.53
2023-02-19T00:11:39.491Z,96030.41
2023-02-19T00:14:09.451Z,96035.47
2023-02-19T00:16:39.451Z,96038.16
2023-02-19T00:19:08.931Z,96032.19
2023-02-19T00:21:36.504Z,96027.63
2023-02-19T00:24:06.750Z,96029.09
2023-02-19T00:26:34.437Z,96017.28
2023-02-19T00:29:02.619Z,96017.13
2023-02-19T00:31:33.646Z,96018.34
2023-02-19T00:34:03.027Z,96008.13
2023-02-19T00:36:32.583Z,96011.47
2023-02-19T00:39:00.160Z,96006.72
2023-02-19T00:41:29.287Z,96005.22
2023-02-19T00:43:59.136Z,96002.34
2023-02-19T00:46:29.395Z,96006.13
2023-02-19T00:48:59.001Z,95999.69
2023-02-19T00:51:29.131Z,96012.97
2023-02-19T00:53:56.936Z,96013.28
2023-02-19T00:56:25.313Z,96017.69
2023-02-19T00:58:53.297Z,96011.19
2023-02-19T01:01:22.108Z,96007.06
2023-02-19T01:03:50.108Z,96007.78
2023-02-19T01:06:21.154Z,96002.63
2023-02-19T01:08:49.232Z,95999.75
2023-02-19T01:11:18.660Z,96005.72
2023-02-19T01:13:46.239Z,95997.75
2023-02-19T01:16:15.869Z,95995.13
2023-02-19T01:18:44.586Z,95995.47
2023-02-19T01:21:15.069Z,95984.56
2023-02-19T01:23:44.199Z,95985.31
2023-02-19T01:26:14.643Z,95980.16
2023-02-19T01:28:42.644Z,95985.25
2023-02-19T01:31:14.855Z,95981.53
2023-02-19T01:33:46.907Z,95979.06
2023-02-19T01:36:15.604Z,95975.75
2023-02-19T01:38:45.296Z,95961.22
2023-02-19T01:41:16.046Z,95964.69
2023-02-19T01:44:01.986Z,95978.34
2023-02-19T01:46:32.577Z,95974.13
2023-02-19T01:49:05.353Z,95965.44
2023-02-19T01:51:34.926Z,95971.59
2023-02-19T01:54:06.698Z,95976.34
2023-02-19T01:56:36.830Z,95966.63
2023-02-19T01:59:04.444Z,95964.84
2023-02-19T02:01:32.672Z,95962.38
2023-02-19T02:04:01.478Z,95967.88
2023-02-19T02:06:32.001Z,95951.72
2023-02-19T02:09:17.822Z,95955.41
2023-02-19T02:11:49.625Z,95948.44
2023-02-19T02:14:19.449Z,95953.56
2023-02-19T02:16:57.146Z,95939.47
2023-02-19T02:19:57.377Z,95926.72
2023-02-19T02:22:30.816Z,95933.84
2023-02-19T02:25:25.835Z,95929.03
2023-02-19T02:28:08.246Z,95930.94
2023-02-19T02:30:43.516Z,95938.47
2023-02-19T02:33:20.496Z,95925.91
2023-02-19T02:35:52.664Z,95921.31
2023-02-19T02:38:25.238Z,95911.59
2023-02-19T02:40:55.896Z,95918.06
2023-02-19T02:43:25.616Z,95902.22
2023-02-19T02:45:55.060Z,95918.53
2023-02-19T02:48:34.309Z,95899.13
2023-02-19T02:51:14.518Z,95895.94
2023-02-19T02:54:12.226Z,95907.50
2023-02-19T02:56:42.614Z,95903.13
2023-02-19T02:59:13.417Z,95904.09
2023-02-19T03:02:04.006Z,95900.81
2023-02-19T03:04:58.934Z,95903.13
2023-02-19T03:07:31.161Z,95895.59
2023-02-19T03:10:01.069Z,95892.19
2023-02-19T03:12:49.964Z,95907.81
2023-02-19T03:15:35.975Z,95902.53
2023-02-19T03:18:28.425Z,95904.03
2023-02-19T03:20:58.943Z,95908.69
2023-02-19T03:23:45.366Z,95903.66
2023-02-19T03:26:14.673Z,95893.13
2023-02-19T03:29:11.911Z,95898.75
2023-02-19T03:31:46.127Z,95900.69
2023-02-19T03:34:18.380Z,95903.97
2023-02-19T03:36:52.413Z,95893.13
2023-02-19T03:39:23.769Z,95896.91
2023-02-19T03:41:59.151Z,95892.44
2023-02-19T03:44:37.135Z,95899.53
2023-02-19T03:47:08.164Z,95898.41
2023-02-19T03:49:47.831Z,95900.38
2023-02-19T03:52:25.401Z,95898.88
2023-02-19T03:55:00.250Z,95894.66
2023-02-19T03:57:39.168Z,95868.16
2023-02-19T04:00:12.728Z,95840.81
2023-02-19T04:02:45.779Z,95854.69
2023-02-19T04:05:19.785Z,95875.78
2023-02-19T04:07:53.555Z,95882.84
2023-02-19T04:10:27.437Z,95880.03
2023-02-19T04:13:01.193Z,95880.22
2023-02-19T04:15:32.685Z,95879.41
2023-02-19T04:18:03.936Z,95867.56
2023-02-19T04:20:37.905Z,95864.09
2023-02-19T04:23:06.476Z,95882.03
2023-02-19T04:25:35.373Z,95899.78
2023-02-19T04:28:03.680Z,95896.16
2023-02-19T04:30:31.322Z,95894.84
2023-02-19T04:32:59.384Z,95899.94
2023-02-19T04:35:27.072Z,95895.19
2023-02-19T04:37:56.589Z,95909.59
2023-02-19T04:40:24.161Z,95908.34
2023-02-19T04:42:52.225Z,95910.13
2023-02-19T04:45:19.813Z,95899.94
2023-02-19T04:47:47.388Z,95906.00
2023-02-19T04:50:15.169Z,95907.69
2023-02-19T04:52:43.157Z,95913.59
2023-02-19T04:55:12.094Z,95909.47
2023-02-19T04:57:40.269Z,95914.03
2023-02-19T05:00:09.620Z,95910.91
2023-02-19T05:02:37.277Z,95906.34
2023-02-19T05:05:05.834Z,95906.97
2023-02-19T05:07:34.128Z,95919.84
2023-02-19T05:10:01.875Z,95916.81
2023-02-19T05:12:32.004Z,95929.97
2023-02-19T05:14:59.924Z,95933.88
2023-02-19T05:17:27.520Z,95930.00
2023-02-19T05:19:55.227Z,95932.00
2023-02-19T05:22:22.783Z,95943.44
2023-02-19T05:24:50.696Z,95924.25
2023-02-19T05:27:18.268Z,95923.75
2023-02-19T05:29:47.848Z,95927.22
2023-02-19T05:32:15.563Z,95925.75
2023-02-19T05:34:43.392Z,95928.38
2023-02-19T05:37:11.135Z,95927.72
2023-02-19T05:39:39.404Z,95933.97
2023-02-19T05:42:06.957Z,95941.53
2023-02-19T05:44:34.714Z,95947.44
2023-02-19T05:47:03.611Z,95940.53
2023-02-19T05:49:31.730Z,95933.94
2023-02-19T05:51:59.287Z,95951.06
2023-02-19T05:54:30.009Z,95959.28
2023-02-19T05:56:57.616Z,95945.97
2023-02-19T05:59:27.756Z,95954.34
2023-02-19T06:01:58.173Z,95945.47
2023-02-19T06:04:27.491Z,95963.06
2023-02-19T06:06:55.054Z,95959.94
2023-02-19T06:09:22.814Z,95967.50
2023-02-19T06:11:50.432Z,95955.31
2023-02-19T06:14:18.822Z,95956.97
2023-02-19T06:16:46.367Z,95966.19
2023-02-19T06:19:14.253Z,95980.66
2023-02-19T06:21:43.133Z,95980.66
2023-02-19T06:24:11.722Z,95979.34
2023-02-19T06:26:39.357Z,95981.97
2023-02-19T06:29:07.955Z,95995.44
2023-02-19T06:31:35.604Z,95976.03
2023-02-19T06:34:05.406Z,95988.56
2023-02-19T06:36:32.973Z,95997.09
2023-02-19T06:39:02.773Z,96003.03
2023-02-19T06:41:30.339Z,96003.69
2023-02-19T06:43:58.769Z,95998.44
2023-02-19T06:46:26.636Z,96011.25
2023-02-19T06:48:54.498Z,96013.88
2023-02-19T06:51:24.555Z,96012.91
2023-02-19T06:53:52.137Z,96026.72
2023-02-19T06:56:26.735Z,96024.75
2023-02-19T06:58:55.085Z,96026.72
2023-02-19T07:01:23.365Z,96026.72
2023-02-19T07:03:52.382Z,96038.19
2023-02-19T07:06:20.478Z,96047.41
2023-02-19T07:08:48.237Z,96063.53
2023-02-19T07:11:16.277Z,96059.03
2023-02-19T07:13:45.837Z,96059.22
2023-02-19T07:16:13.946Z,96071.06
2023-02-19T07:18:41.861Z,96077.78
2023-02-19T07:21:12.727Z,96072.94
2023-02-19T07:23:41.007Z,96089.50
2023-02-19T07:26:11.457Z,96083.63
2023-02-19T07:28:39.186Z,96088.38
2023-02-19T07:31:08.519Z,96083.69
2023-02-19T07:33:36.159Z,96091.97
2023-02-19T07:36:04.523Z,96094.94
2023-02-19T07:38:32.110Z,96089.28
2023-02-19T07:41:01.711Z,96104.13
2023-02-19T07:43:32.208Z,96110.06
2023-02-19T07:46:00.514Z,96119.25
2023-02-19T07:48:29.429Z,96110.47
2023-02-19T07:50:59.080Z,96125.31
2023-02-19T07:53:28.845Z,96125.63
2023-02-19T07:56:01.677Z,96135.50
2023-02-19T07:58:29.683Z,96137.44
2023-02-19T08:00:57.872Z,96132.19
2023-02-19T08:03:24.521Z,96131.25
2023-02-19T08:05:54.923Z,96123.31
2023-02-19T08:08:22.643Z,96133.28
2023-02-19T08:11:08.596Z,96135.91
2023-02-19T08:13:36.306Z,96141.13
2023-02-19T08:16:21.885Z,96140.22
2023-02-19T08:18:54.753Z,96146.41
2023-02-19T08:21:24.760Z,96154.19
2023-02-19T08:23:52.350Z,96154.69
2023-02-19T08:26:20.661Z,96149.47
2023-02-19T08:28:49.760Z,96168.53
2023-02-19T08:31:17.726Z,96162.00
2023-02-19T08:33:45.367Z,96147.84
2023-02-19T08:36:13.608Z,96160.34
2023-02-19T08:38:42.533Z,96171.88
2023-02-19T08:41:12.700Z,96175.81
2023-02-19T08:43:41.284Z,96178.44
2023-02-19T08:46:10.554Z,96165.97
2023-02-19T08:48:38.927Z,96160.34
2023-02-19T08:51:09.523Z,96163.97
2023-02-19T08:53:39.348Z,96175.81
2023-02-19T08:56:09.995Z,96177.97
2023-02-19T08:58:38.316Z,96166.44
2023-02-19T09:01:10.121Z,96162.00
2023-02-19T09:03:37.970Z,96198.06
2023-02-19T09:06:06.259Z,96185.63
2023-02-19T09:08:33.962Z,96193.91
2023-02-19T09:11:02.157Z,96189.69
2023-02-19T09:13:31.492Z,96194.81
2023-02-19T09:15:59.341Z,96209.16
2023-02-19T09:18:27.899Z,96187.28
2023-02-19T09:20:55.480Z,96189.78
2023-02-19T09:23:23.593Z,96218.75
2023-02-19T09:25:58.486Z,96194.09
2023-02-19T09:28:26.498Z,96191.91
2023-02-19T09:30:55.959Z,96180.41
2023-02-19T09:33:24.192Z,96209.97
2023-02-19T09:35:51.923Z,96198.78
2023-02-19T09:38:19.673Z,96195.25
2023-02-19T09:40:47.344Z,96199.06
2023-02-19T09:43:19.595Z,96181.34
2023-02-19T09:45:47.367Z,96182.44
2023-02-19T09:48:16.295Z,96203.44
2023-02-19T09:50:48.522Z,96194.03
2023-02-19T09:53:21.844Z,96213.59
2023-02-19T09:55:50.126Z,96194.41
2023-02-19T09:58:27.353Z,96193.97
2023-02-19T10:00:57.103Z,96204.31
2023-02-19T10:03:31.812Z,96186.13
2023-02-19T10:06:01.734Z,96195.97
2023-02-19T10:08:34.160Z,96195.03
2023-02-19T10:11:04.100Z,96193.94
2023-02-19T10:13:35.584Z,96165.78
2023-02-19T10:16:05.537Z,96208.84
2023-02-19T10:18:39.230Z,96192.91
2023-02-19T10:21:07.335Z,96187.97
2023-02-19T10:23:35.245Z,96218.34
2023-02-19T10:26:02.862Z,96197.13
2023-02-19T10:28:33.543Z,96201.47
2023-02-19T10:31:02.981Z,96201.59
2023-02-19T10:33:31.369Z,96202.84
2023-02-19T10:36:03.352Z,96216.13
2023-02-19T10:38:34.770Z,96197.59
2023-02-19T10:41:07.059Z,96171.78
2023-02-19T10:43:39.822Z,96196.97
2023-02-19T10:46:09.136Z,96175.94
2023-02-19T10:48:39.536Z,96200.88
2023-02-19T10:51:12.335Z,96214.03
2023-02-19T10:53:46.337Z,96204.00
2023-02-19T10:56:16.223Z,96202.31
2023-02-19T10:58:47.497Z,96193.59
2023-02-19T11:01:19.590Z,96197.91
2023-02-19T11:03:48.897Z,96200.50
2023-02-19T11:06:21.193Z,96207.41
2023-02-19T11:08:56.913Z,96225.16
2023-02-19T11:11:33.725Z,96238.84
2023-02-19T11:14:06.937Z,96230.22
2023-02-19T11:16:43.879Z,96225.97
2023-02-19T11:19:27.124Z,96235.75
2023-02-19T11:21:57.415Z,96229.81
2023-02-19T11:24:35.103Z,96217.22
2023-02-19T11:27:05.082Z,96184.34
2023-02-19T11:29:35.777Z,96199.59
2023-02-19T11:32:26.383Z,96185.75
2023-02-19T11:35:14.295Z,96168.97
2023-02-19T11:37:55.133Z,96196.78
2023-02-19T11:40:26.800Z,96201.69
2023-02-19T11:43:01.710Z,96190.91
2023-02-19T11:45:39.068Z,96180.59
2023-02-19T11:48:30.247Z,96192.56
2023-02-19T11:51:14.875Z,96171.63
2023-02-19T11:53:49.856Z,96161.81
2023-02-19T11:56:20.339Z,96174.66
2023-02-19T11:59:06.460Z,96180.31
2023-02-19T12:02:00.422Z,96210.69
2023-02-19T12:04:53.803Z,96199.78
2023-02-19T12:07:36.984Z,96201.56
2023-02-19T12:10:14.748Z,96210.13
2023-02-19T12:12:56.872Z,96224.88
2023-02-19T12:15:36.394Z,96222.53
2023-02-19T12:18:29.182Z,96261.16
2023-02-19T12:21:13.291Z,96233.47
2023-02-19T12:24:04.000Z,96227.19
2023-02-19T12:26:41.183Z,96252.09
2023-02-19T12:29:26.098Z,96245.31
2023-02-19T12:32:14.845Z,96258.84
2023-02-19T12:35:12.473Z,96267.41
2023-02-19T12:37:48.428Z,96275.94
2023-02-19T12:40:29.457Z,96286.47
2023-02-19T12:43:10.352Z,96262.16
2023-02-19T12:45:43.875Z,96293.63
2023-02-19T12:48:19.548Z,96278.06
2023-02-19T12:50:52.232Z,96269.06
2023-02-19T12:53:32.434Z,96294.78
2023-02-19T12:56:05.515Z,96276.78
2023-02-19T12:58:41.485Z,96303.25
2023-02-19T13:01:15.004Z,96276.91
2023-02-19T13:03:50.252Z,96272.38
2023-02-19T13:06:27.969Z,96283.22
2023-02-19T13:09:07.221Z,96275.75
2023-02-19T13:11:40.483Z,96284.00
2023-02-19T13:14:19.543Z,96279.78
2023-02-19T13:16:53.554Z,96282.59
2023-02-19T13:19:21.160Z,96286.41
2023-02-19T13:22:14.876Z,96292.25
2023-02-19T13:24:45.928Z,96278.41
2023-02-19T13:27:31.940Z,96283.84
2023-02-19T13:30:11.445Z,96267.19
2023-02-19T13:32:54.104Z,96249.25
2023-02-19T13:35:38.806Z,96245.69
2023-02-19T13:38:07.679Z,96256.22
2023-02-19T13:40:39.174Z,96259.03
2023-02-19T13:43:21.616Z,96260.50
2023-02-19T13:45:56.869Z,96264.72
2023-02-19T13:48:30.471Z,96256.19
2023-02-19T13:51:36.673Z,96273.31
2023-02-19T13:54:15.332Z,96260.66
2023-02-19T13:56:43.800Z,96241.69
2023-02-19T13:59:24.916Z,96243.00
2023-02-19T14:02:30.896Z,96237.94
2023-02-19T14:05:01.096Z,96253.56
2023-02-19T14:08:02.097Z,96260.13
2023-02-19T14:11:03.700Z,96261.94
2023-02-19T14:13:57.989Z,96281.16
2023-02-19T14:16:52.748Z,96275.63
2023-02-19T14:19:50.266Z,96269.03
2023-02-19T14:22:51.294Z,96261.81
2023-02-19T14:25:35.347Z,96254.72
2023-02-19T14:28:07.268Z,96260.81
2023-02-19T14:30:41.863Z,96267.25
2023-02-19T14:33:12.001Z,96260.34
2023-02-19T14:35:43.977Z,96276.66
2023-02-19T14:38:19.108Z,96279.28
2023-02-19T14:40:49.425Z,96262.16
2023-02-19T14:43:19.737Z,96250.78
2023-02-19T14:45:50.296Z,96240.72
2023-02-19T14:48:22.844Z,96262.16
2023-02-19T14:50:56.165Z,96247.66
2023-02-19T14:53:25.351Z,96249.28
2023-02-19T14:55:55.858Z,96247.63
2023-02-19T14:58:27.124Z,96253.22
2023-02-19T15:00:55.543Z,96264.44
2023-02-19T15:03:27.609Z,96258.50
2023-02-19T15:05:59.712Z,96279.78
2023-02-19T15:08:34.146Z,96292.97
2023-02-19T15:11:05.268Z,96294.47
2023-02-19T15:13:32.956Z,96290.84
2023-02-19T15:16:01.003Z,96288.53
2023-02-19T15:18:29.893Z,96306.63
2023-02-19T15:21:05.936Z,96306.91
2023-02-19T15:23:37.187Z,96328.50
2023-02-19T15:26:05.003Z,96320.97
2023-02-19T15:28:34.992Z,96308.75
2023-02-19T15:31:08.293Z,96313.38
2023-02-19T15:33:36.049Z,96322.38
2023-02-19T15:36:07.830Z,96320.25
2023-02-19T15:38:35.931Z,96323.06
2023-02-19T15:41:04.528Z,96339.81
2023-02-19T15:43:39.140Z,96325.03
2023-02-19T15:46:15.897Z,96341.31
2023-02-19T15:48:49.239Z,96329.19
2023-02-19T15:51:25.095Z,96328.66
2023-02-19T15:53:57.366Z,96326.69
2023-02-19T15:56:30.382Z,96349.81
2023-02-19T15:59:02.883Z,96333.69
2023-02-19T16:01:31.967Z,96322.31
2023-02-19T16:04:00.093Z,96318.69
2023-02-19T16:06:30.449Z,96317.06
2023-02-19T16:09:03.277Z,96322.66
2023-02-19T16:11:36.438Z,96313.44
2023-02-19T16:14:25.279Z,96328.91
2023-02-19T16:16:56.796Z,96319.97
2023-02-19T16:19:28.496Z,96336.44
2023-02-19T16:21:59.735Z,96333.53
2023-02-19T16:24:31.024Z,96328.09
2023-02-19T16:26:59.498Z,96325.25
2023-02-19T16:29:29.943Z,96336.97
2023-02-19T16:31:59.686Z,96332.53
2023-02-19T16:34:40.237Z,96334.13
2023-02-19T16:37:34.664Z,96335.03
2023-02-19T16:40:50.687Z,96346.22
2023-02-19T16:43:28.132Z,96338.94
2023-02-19T16:45:55.833Z,96347.50
2023-02-19T16:48:24.449Z,96348.50
2023-02-19T16:50:52.442Z,96359.03
2023-02-19T16:53:24.739Z,96371.22
2023-02-19T16:55:52.722Z,96370.09
2023-02-19T16:58:20.517Z,96380.63
2023-02-19T17:00:48.553Z,96379.06
2023-02-19T17:03:20.419Z,96387.53
2023-02-19T17:05:48.671Z,96403.31
2023-02-19T17:08:36.981Z,96398.31
2023-02-19T17:11:06.362Z,96412.41
2023-02-19T17:13:34.339Z,96415.31
2023-02-19T17:16:02.383Z,96409.19
2023-02-19T17:18:30.510Z,96412.50
2023-02-19T17:21:02.322Z,96405.69
2023-02-19T17:23:30.526Z,96409.28
2023-02-19T17:25:59.496Z,96404.34
2023-02-19T17:28:27.384Z,96407.59
2023-02-19T17:30:55.153Z,96415.25
2023-02-19T17:33:23.188Z,96421.97
2023-02-19T17:35:50.791Z,96433.84
2023-02-19T17:38:18.728Z,96437.38
2023-02-19T17:40:46.293Z,96434.16
2023-02-19T17:43:15.773Z,96440.78
2023-02-19T17:45:43.385Z,96453.56
2023-02-19T17:48:14.221Z,96453.84
2023-02-19T17:50:42.503Z,96463.34
2023-02-19T17:53:10.935Z,96466.72
2023-02-19T17:55:38.653Z,96471.91
2023-02-19T17:58:06.900Z,96463.41
2023-02-19T18:00:36.575Z,96472.25
2023-02-19T18:03:04.911Z,96472.56
2023-02-19T18:05:32.505Z,96466.94
2023-02-19T18:08:00.446Z,96480.09
2023-02-19T18:10:30.371Z,96474.22
2023-02-19T18:12:57.953Z,96475.28
2023-02-19T18:15:27.414Z,96486.53
2023-02-19T18:17:58.059Z,96489.94
2023-02-19T18:20:31.249Z,96495.19
2023-02-19T18:22:59.170Z,96498.03
2023-02-19T18:25:27.635Z,96504.59
2023-02-19T18:27:55.448Z,96502.31
2023-02-19T18:30:23.981Z,96503.03
2023-02-19T18:32:52.203Z,96507.97
2023-02-19T18:35:21.915Z,96511.88
2023-02-19T18:37:51.728Z,96515.19
2023-02-19T18:40:20.606Z,96519.84
2023-02-19T18:42:48.304Z,96524.75
2023-02-19T18:45:18.298Z,96525.50
2023-02-19T18:47:47.604Z,96528.88
2023-02-19T18:50:16.314Z,96529.53
2023-02-19T18:52:46.399Z,96538.03
2023-02-19T18:55:14.327Z,96535.25
2023-02-19T18:57:41.985Z,96528.34
2023-02-19T19:00:11.032Z,96530.00
2023-02-19T19:02:48.875Z,96518.13
2023-02-19T19:05:21.217Z,96526.09
2023-02-19T19:07:50.363Z,96527.31
2023-02-19T19:10:19.237Z,96524.59
2023-02-19T19:12:46.825Z,96536.03
2023-02-19T19:15:18.068Z,96530.63
2023-02-19T19:17:46.149Z,96516.09
2023-02-19T19:20:14.801Z,96525.78
2023-02-19T19:22:42.432Z,96533.56
2023-02-19T19:25:11.851Z,96541.66
2023-02-19T19:27:39.452Z,96533.00
2023-02-19T19:30:08.768Z,96543.53
2023-02-19T19:32:36.399Z,96543.53
2023-02-19T19:35:04.504Z,96542.25
2023-02-19T19:37:32.202Z,96541.41
2023-02-19T19:40:00.195Z,96537.19
2023-02-19T19:42:29.133Z,96535.63
2023-02-19T19:44:57.324Z,96537.19
2023-02-19T19:47:24.936Z,96541.09
2023-02-19T19:49:53.097Z,96530.22
2023-02-19T19:52:20.724Z,96529.84
2023-02-19T19:54:48.676Z,96527.22
2023-02-19T19:57:17.020Z,96529.09
2023-02-19T19:59:49.680Z,96529.91
2023-02-19T20:02:18.123Z,96540.03
2023-02-19T20:04:45.796Z,96540.03
2023-02-19T20:07:13.779Z,96525.81
2023-02-19T20:09:41.568Z,96538.63
2023-02-19T20:12:11.583Z,96548.59
2023-02-19T20:14:39.599Z,96550.53
2023-02-19T20:17:09.859Z,96546.34
2023-02-19T20:19:37.491Z,96553.00
2023-02-19T20:22:05.208Z,96548.88
2023-02-19T20:24:32.865Z,96552.00
2023-02-19T20:27:02.576Z,96552.34
2023-02-19T20:29:32.938Z,96546.75
2023-02-19T20:32:03.446Z,96546.00
2023-02-19T20:34:33.016Z,96546.16
2023-02-19T20:37:00.968Z,96552.78
2023-02-19T20:39:29.840Z,96546.16
2023-02-19T20:41:58.457Z,96557.06
2023-02-19T20:44:27.130Z,96546.91
2023-02-19T20:46:56.266Z,96544.19
2023-02-19T20:49:27.040Z,96550.25
2023-02-19T20:51:58.046Z,96544.25
2023-02-19T20:54:28.107Z,96558.16
2023-02-19T20:56:57.545Z,96547.22
2023-02-19T20:59:30.433Z,96561.59
2023-02-19T21:01:59.109Z,96562.44
2023-02-19T21:04:27.308Z,96550.53
2023-02-19T21:06:56.332Z,96558.41
2023-02-19T21:09:24.460Z,96561.56
2023-02-19T21:11:53.041Z,96552.91
2023-02-19T21:14:20.651Z,96564.66
2023-02-19T21:16:48.330Z,96566.59
2023-02-19T21:19:16.000Z,96564.75
2023-02-19T21:21:43.771Z,96568.25
2023-02-19T21:24:14.804Z,96559.59
2023-02-19T21:26:43.603Z,96559.69
2023-02-19T21:29:16.533Z,96563.13
2023-02-19T21:31:46.449Z,96563.66
2023-02-19T21:34:16.314Z,96558.22
2023-02-19T21:36:44.583Z,96560.19
2023-02-19T21:39:15.949Z,96567.91
2023-02-19T21:41:43.559Z,96561.25
2023-02-19T21:44:11.700Z,96560.19
2023-02-19T21:46:40.160Z,96564.75
2023-02-19T21:49:07.760Z,96558.94
2023-02-19T21:51:37.756Z,96559.59
2023-02-19T21:54:06.317Z,96556.28
2023-02-19T21:56:36.948Z,96545.78
2023-02-19T21:59:05.859Z,96549.97
2023-02-19T22:01:38.838Z,96553.84
2023-02-19T22:04:08.181Z,96551.91
2023-02-19T22:06:36.809Z,96553.47
2023-02-19T22:09:04.740Z,96551.41
2023-02-19T22:11:32.352Z,96557.22
2023-02-19T22:14:01.784Z,96561.91
2023-02-19T22:16:29.640Z,96558.31
2023-02-19T22:18:59.989Z,96556.00
2023-02-19T22:21:32.248Z,96556.78
2023-02-19T22:24:01.957Z,96563.69
2023-02-19T22:26:32.291Z,96571.56
2023-02-19T22:29:05.914Z,96568.72
2023-02-19T22:31:34.074Z,96573.50
2023-02-19T22:34:02.553Z,96572.38
2023-02-19T22:36:32.031Z,96569.59
2023-02-19T22:39:00.576Z,96565.22
2023-02-19T22:41:28.636Z,96556.88
2023-02-19T22:43:57.260Z,96557.84
2023-02-19T22:46:28.696Z,96561.56
2023-02-19T22:48:57.512Z,96553.56
2023-02-19T22:51:25.815Z,96549.28
2023-02-19T22:53:55.606Z,96560.72
2023-02-19T22:56:24.743Z,96564.97
2023-02-19T22:58:53.632Z,96568.78
2023-02-19T23:01:21.827Z,96575.16
2023-02-19T23:03:54.157Z,96577.66
2023-02-19T23:06:24.245Z,96586.66
2023-02-19T23:08:53.214Z,96584.91
2023-02-19T23:11:22.476Z,96588.19
2023-02-19T23:13:50.382Z,96595.59
2023-02-19T23:16:18.535Z,96602.34
2023-02-19T23:18:46.537Z,96595.66
2023-02-19T23:21:16.068Z,96597.69
2023-02-19T23:23:45.214Z,96598.09
2023-02-19T23:26:14.631Z,96594.19
2023-02-19T23:28:44.383Z,96593.25
2023-02-19T23:31:12.842Z,96594.53
2023-02-19T23:33:41.705Z,96600.78
2023-02-19T23:36:10.919Z,96605.34
2023-02-19T23:38:40.559Z,96605.00
2023-02-19T23:41:10.721Z,96600.25
2023-02-19T23:43:39.635Z,96602.06
2023-02-19T23:46:07.638Z,96594.63
2023-02-19T23:48:35.821Z,96594.63
2023-02-19T23:51:03.458Z,96589.38
2023-02-19T23:53:31.404Z,96591.31
2023-02-19T23:56:00.618Z,96599.59
2023-02-19T23:58:28.607Z,96600.47
